KAZC

Colorado City Municipal Airport

Colorado City, Arizona, USA
METAR KAZC 190115Z AUTO 03003KT 10SM CLR 06/M02 A3022 RMK AO2
Observed Flight Rules
Dec-19 @ 01:15 UTC (7 minutes ago) Visual Flight Rules
Wind Visibility Clouds
30° at 3 knots 10 miles
  • Clear skies
Temperatures Readings
Current 6°C / 43°F
Dewpoint -2°C / 28°F
Humidity 57%
Altimeter 30.22" Hg
Pressure 1023 hPa
Elevation 1486
METAR KAZC 190115Z AUTO 03003KT 10SM CLR 06/M02 A3022 RMK AO2
Observed Flight Rules
Dec-19 @ 01:15 UTC
(7 minutes ago)
VFR
Wind Visibility
30° at 3 knots 10 miles
Clouds
  • Clear skies
Temperature Dewpoint
6°C / 43°F -2°C / 28°F
Humidity Altimeter Pressure
57% 30.22" Hg 1023 hPa